D/T METAR WX W/DIR W/SPE G/SPE TEMP DEWP
25/02/20 14:50 EGJJ 251450Z 26024KT 8000 SHRA FEW020CB SCT025 BKN029 07/05 Q1004 SHRA W (260°) 27.6mph 7°C 5°C
25/02/20 14:20 EGJJ 251420Z 26022KT 9999 VCSH FEW020CB SCT030 08/04 Q1004 RESHRA VCSH W (260°) 25.3mph 8°C 4°C
25/02/20 13:50 EGJJ 251350Z 26020KT 9999 VCSH FEW015CB SCT030 10/04 Q1004 VCSH W (260°) 23.0mph 10°C 4°C
25/02/20 13:20 EGJJ 251320Z 26021G31KT 9999 FEW015CB 10/04 Q1005 W (260°) 24.2mph 35.7mph 10°C 4°C
25/02/20 12:50 EGJJ 251250Z 27023KT 9999 FEW015CB SCT029 10/04 Q1005 W (270°) 26.5mph 10°C 4°C
25/02/20 12:20 EGJJ 251220Z 27023KT 9999 FEW015CB SCT029 09/05 Q1006 W (270°) 26.5mph 9°C 5°C
25/02/20 11:50 EGJJ 251150Z 26020KT 9999 FEW015CB SCT026 09/05 Q1006 W (260°) 23.0mph 9°C 5°C
25/02/20 11:20 EGJJ 251120Z 27021KT 9999 FEW015CB 09/05 Q1006 W (270°) 24.2mph 9°C 5°C
25/02/20 10:50 EGJJ 251050Z 27025KT 9999 -SHRA FEW015CB SCT032 07/05 Q1007 RESHRA -SHRA W (270°) 28.8mph 7°C 5°C
25/02/20 10:20 EGJJ 251020Z 27021KT 9000 +SHRA FEW012 SCT015CB BKN023 07/05 Q1006 +SHRA W (270°) 24.2mph 7°C 5°C
25/02/20 09:50 EGJJ 250950Z 27021G32KT 9999 -SHRA FEW015CB BKN026 06/05 Q1007 RESHRA -SHRA W (270°) 24.2mph 36.8mph 6°C 5°C
25/02/20 09:20 EGJJ 250920Z 26022KT 9999 VCSH FEW015CB 09/05 Q1007 VCSH W (260°) 25.3mph 9°C 5°C
25/02/20 08:50 EGJJ 250850Z 26018KT 9999 VCSH FEW015CB 09/06 Q1007 VCSH W (260°) 20.7mph 9°C 6°C
25/02/20 08:20 EGJJ 250820Z 27020G31KT 9999 -SHRA FEW015CB SCT018 07/05 Q1008 RESHRA -SHRA W (270°) 23.0mph 35.7mph 7°C 5°C
25/02/20 07:50 EGJJ 250750Z 27017KT 9999 VCSH FEW015CB SCT025 08/05 Q1008 VCSH W (270°) 19.6mph 8°C 5°C
25/02/20 07:20 EGJJ 250720Z 27018G29KT 9999 -SHRA FEW015CB BKN022 07/05 Q1008 RESHRA -SHRA W (270°) 20.7mph 33.4mph 7°C 5°C
25/02/20 06:50 EGJJ 250650Z 26015KT 9999 FEW015CB SCT033 07/06 Q1008 RESHRA W (260°) 17.3mph 7°C 6°C
25/02/20 06:20 EGJJ 250620Z 27020KT 9999 SHRA FEW015 BKN026 07/05 Q1008 SHRA W (270°) 23.0mph 7°C 5°C
25/02/20 05:50 EGJJ 250550Z 26017KT 9999 -SHRA FEW012 SCT019 07/06 Q1009 -SHRA W (260°) 19.6mph 7°C 6°C
25/02/20 05:20 EGJJ 250520Z AUTO 27014KT 9999 FEW014/// SCT017/// BKN020/// 08/06 Q1009 RERA W (270°) 16.1mph 8°C 6°C
25/02/20 04:50 EGJJ 250450Z AUTO 27013KT 9999 SCT030/// BKN035/// 08/04 Q1009 W (270°) 15.0mph 8°C 4°C
25/02/20 04:20 EGJJ 250420Z AUTO 27014KT 9999 NCD 08/03 Q1009 W (270°) 16.1mph 8°C 3°C
25/02/20 03:50 EGJJ 250350Z AUTO 27016KT 9999 FEW029/// 08/04 Q1009 REDZ W (270°) 18.4mph 8°C 4°C
25/02/20 03:20 EGJJ 250320Z AUTO 28017G28KT 9999 FEW022/// SCT030/// OVC037/// 08/04 Q1009 REDZ W (280°) 19.6mph 32.2mph 8°C 4°C
25/02/20 02:50 EGJJ 250250Z AUTO 28014KT 9999 FEW017/// BKN024/// OVC027/// 08/06 Q1010 RESHRA W (280°) 16.1mph 8°C 6°C
25/02/20 02:20 EGJJ 250220Z AUTO 27016KT 9999 SCT030/// OVC036/// 08/// Q1010 RESHRA W (270°) 18.4mph 0°C 0°C
25/02/20 01:50 EGJJ 250150Z AUTO 27016G26KT 9999 FEW009/// SCT020/// BKN028/// 08/06 Q1010 RESHRA W (270°) 18.4mph 29.9mph 8°C 6°C
25/02/20 01:20 EGJJ 250120Z AUTO 27017G29KT 9999 FEW014/// SCT017/// BKN024/// 08/06 Q1010 RERA W (270°) 19.6mph 33.4mph 8°C 6°C
25/02/20 00:50 EGJJ 250050Z AUTO 28013KT 9999 OVC035/// 08/07 Q1010 W (280°) 15.0mph 8°C 7°C
24/02/20 23:50 EGJJ 242350Z AUTO 27011KT 9999 SCT031/// BKN036/// 08/07 Q1011 W (270°) 12.7mph 8°C 7°C
24/02/20 23:20 EGJJ 242320Z AUTO 28012KT 9999 FEW020/// BKN037/// 09/07 Q1011 W (280°) 13.8mph 9°C 7°C
24/02/20 22:50 EGJJ 242250Z AUTO 28014KT 9999 SCT028/// BKN032/// BKN037/// 09/07 Q1011 REDZ W (280°) 16.1mph 9°C 7°C
24/02/20 22:20 EGJJ 242220Z AUTO 28016KT 9999 FEW013/// BKN016/// BKN020/// 09/08 Q1011 REDZ W (280°) 18.4mph 9°C 8°C
24/02/20 21:50 EGJJ 242150Z AUTO 27015KT 9999 BKN010/// OVC017/// 09/09 Q1011 RERA W (270°) 17.3mph 9°C 9°C
24/02/20 21:20 EGJJ 242120Z AUTO 27014KT 9999 BKN037/// BKN046/// 09/09 Q1011 RERA W (270°) 16.1mph 9°C 9°C
24/02/20 20:50 EGJJ 242050Z 27016KT 4000 RA BR SCT002 BKN004 BKN013 09/09 Q1012 RA BR W (270°) 18.4mph 9°C 9°C
24/02/20 20:20 EGJJ 242020Z 26017KT 2500 RA BR FEW000 SCT002 BKN003 10/10 Q1012 RA BR W (260°) 19.6mph 10°C 10°C
24/02/20 19:50 EGJJ 241950Z 25018KT 7000 -RA SCT004 BKN005 10/10 Q1012 -RA WSW (250°) 20.7mph 10°C 10°C
24/02/20 19:20 EGJJ 241920Z 25019KT 8000 SCT003 BKN004 10/10 Q1012 WSW (250°) 21.9mph 10°C 10°C
24/02/20 18:50 EGJJ 241850Z 24020KT 5000 -RA BR FEW000 BKN002 10/10 Q1012 RERA -RA BR WSW (240°) 23.0mph 10°C 10°C
24/02/20 18:20 EGJJ 241820Z 24020KT 4000 RA BR FEW000 BKN002 10/10 Q1012 RA BR WSW (240°) 23.0mph 10°C 10°C
24/02/20 17:50 EGJJ 241750Z 24019KT 4500 RA BR FEW000 BKN002 10/10 Q1012 RA BR WSW (240°) 21.9mph 10°C 10°C
24/02/20 17:20 EGJJ 241720Z 24019KT 5000 -RADZ BR FEW000 BKN003 10/10 Q1012 -RA -DZ BR WSW (240°) 21.9mph 10°C 10°C
24/02/20 16:50 EGJJ 241650Z 24019KT 2500 -RADZ FEW000 BKN002 10/10 Q1012 -RA -DZ WSW (240°) 21.9mph 10°C 10°C
24/02/20 16:20 EGJJ 241620Z 24021KT 2500 -RADZ BR SCT002 BKN003 10/09 Q1012 -RA -DZ BR WSW (240°) 24.2mph 10°C 9°C
24/02/20 15:50 EGJJ 241550Z 24022KT 2500 -RADZ BR FEW002 OVC003 10/09 Q1013 -RA -DZ BR WSW (240°) 25.3mph 10°C 9°C
24/02/20 15:20 EGJJ 241520Z 23019KT 5000 -RA BR FEW002 BKN004 10/09 Q1013 -RA BR SW (230°) 21.9mph 10°C 9°C
24/02/20 14:50 EGJJ 241450Z 24020KT 8000 -RA FEW006 BKN007 10/09 Q1013 -RA WSW (240°) 23.0mph 10°C 9°C